createdAt,value
2019-05-29T04:19:01.450Z,15.80
2019-05-29T04:21:34.195Z,13.00
2019-05-29T04:24:07.531Z,12.45
2019-05-29T04:26:40.738Z,14.73
2019-05-29T04:29:12.979Z,11.83
2019-05-29T04:31:45.144Z,15.35
2019-05-29T04:34:17.364Z,11.12
2019-05-29T04:36:49.570Z,11.70
2019-05-29T04:39:21.667Z,11.45
2019-05-29T04:41:53.873Z,10.93
2019-05-29T04:44:26.226Z,13.68
2019-05-29T04:47:10.569Z,14.20
2019-05-29T04:49:33.812Z,11.10
2019-05-29T04:52:06.068Z,17.25
2019-05-29T04:54:40.034Z,14.25
2019-05-29T04:57:12.180Z,11.57
2019-05-29T04:59:44.322Z,13.48
2019-05-29T05:02:16.570Z,14.28
2019-05-29T05:04:48.779Z,13.65
2019-05-29T05:07:20.982Z,11.08
2019-05-29T05:09:53.173Z,13.83
2019-05-29T05:12:25.365Z,11.12
2019-05-29T05:14:57.652Z,11.03
2019-05-29T05:17:31.728Z,14.00
2019-05-29T05:20:05.032Z,14.68
2019-05-29T05:22:38.202Z,12.88
2019-05-29T05:25:10.792Z,13.98
2019-05-29T05:27:42.976Z,17.75
2019-05-29T05:30:16.154Z,13.03
2019-05-29T05:32:48.426Z,11.85
2019-05-29T05:35:20.628Z,13.72
2019-05-29T05:37:52.813Z,11.43
2019-05-29T05:40:25.193Z,9.75
2019-05-29T05:42:57.287Z,6.65
2019-05-29T05:45:35.101Z,8.53
2019-05-29T05:48:17.195Z,7.17
2019-05-29T05:50:49.308Z,8.85
2019-05-29T05:53:21.543Z,11.97
2019-05-29T05:55:53.799Z,12.23
2019-05-29T05:58:26.012Z,10.65
2019-05-29T06:00:58.222Z,9.93
2019-05-29T06:03:30.283Z,10.70
2019-05-29T06:06:03.554Z,9.35
2019-05-29T06:08:36.149Z,7.70
2019-05-29T06:11:08.345Z,18.45
2019-05-29T06:13:40.703Z,5.22
2019-05-29T06:16:12.863Z,9.55
2019-05-29T06:18:45.029Z,7.60
2019-05-29T06:21:17.069Z,10.15
2019-05-29T06:23:49.255Z,5.65
2019-05-29T06:26:21.379Z,6.80
2019-05-29T06:28:53.394Z,9.40
2019-05-29T06:31:27.259Z,11.18
2019-05-29T06:33:59.547Z,10.15
2019-05-29T06:36:31.730Z,7.65
2019-05-29T06:39:03.704Z,6.25
2019-05-29T06:41:35.754Z,9.83
2019-05-29T06:44:07.782Z,13.08
2019-05-29T06:46:40.538Z,6.60
2019-05-29T06:49:12.794Z,8.20
2019-05-29T06:51:44.811Z,7.17
2019-05-29T06:54:16.897Z,9.65
2019-05-29T06:56:48.916Z,8.25
2019-05-29T06:59:20.951Z,11.30
2019-05-29T07:01:53.469Z,15.58
2019-05-29T07:04:25.688Z,11.20
2019-05-29T07:06:57.814Z,14.23
2019-05-29T07:09:30.052Z,9.13
2019-05-29T07:12:04.246Z,4.35
2019-05-29T07:14:36.414Z,5.92
2019-05-29T07:17:08.509Z,12.78
2019-05-29T07:19:53.949Z,8.70
2019-05-29T07:22:14.471Z,7.15
2019-05-29T07:24:47.013Z,9.95
2019-05-29T07:27:19.313Z,9.70
2019-05-29T07:29:51.320Z,12.43
2019-05-29T07:32:23.506Z,6.65
2019-05-29T07:35:03.049Z,8.50
2019-05-29T07:37:29.294Z,7.67
2019-05-29T07:40:01.280Z,9.33
2019-05-29T07:42:33.402Z,7.17
2019-05-29T07:45:07.706Z,8.43
2019-05-29T07:47:40.401Z,9.18
2019-05-29T07:50:28.446Z,9.28
2019-05-29T07:53:00.581Z,6.50
2019-05-29T07:55:32.629Z,13.88
2019-05-29T07:58:04.890Z,6.70
2019-05-29T08:00:56.332Z,4.75
2019-05-29T08:03:10.659Z,4.78
2019-05-29T08:05:46.157Z,4.80
2019-05-29T08:08:16.741Z,8.13
2019-05-29T08:10:49.726Z,7.35
2019-05-29T08:13:21.759Z,6.87
2019-05-29T08:16:02.379Z,7.05
2019-05-29T08:18:27.563Z,8.75
2019-05-29T08:21:36.896Z,6.33
2019-05-29T08:23:51.377Z,7.92
2019-05-29T08:26:26.570Z,7.03
2019-05-29T08:28:58.761Z,5.15
2019-05-29T08:31:30.982Z,8.13
2019-05-29T08:34:03.079Z,12.45
2019-05-29T08:36:35.363Z,5.30
2019-05-29T08:39:08.392Z,4.30
2019-05-29T08:41:40.444Z,5.87
2019-05-29T08:44:12.562Z,7.60
2019-05-29T08:47:01.498Z,6.03
2019-05-29T08:49:18.553Z,7.83
2019-05-29T08:51:52.320Z,9.85
2019-05-29T08:54:28.290Z,3.98
2019-05-29T08:57:00.444Z,7.40
2019-05-29T08:59:34.791Z,5.67
2019-05-29T09:02:08.394Z,6.85
2019-05-29T09:04:40.477Z,4.65
2019-05-29T09:07:17.079Z,4.50
2019-05-29T09:09:51.280Z,10.25
2019-05-29T09:12:23.872Z,7.58
2019-05-29T09:14:57.425Z,24.00
2019-05-29T09:17:29.793Z,10.95
2019-05-29T09:20:02.039Z,3.20
2019-05-29T09:22:34.074Z,5.28
2019-05-29T09:25:06.358Z,6.83
2019-05-29T09:27:38.378Z,9.93
2019-05-29T09:30:10.348Z,6.72
2019-05-29T09:32:50.366Z,6.53
2019-05-29T09:35:18.410Z,9.30
2019-05-29T09:37:49.909Z,5.53
2019-05-29T09:40:23.109Z,7.37
2019-05-29T09:42:55.280Z,6.50
2019-05-29T09:45:27.259Z,7.95
2019-05-29T09:47:59.437Z,6.67
2019-05-29T09:50:48.869Z,6.95
2019-05-29T09:53:05.157Z,9.00
2019-05-29T09:55:38.874Z,7.28
2019-05-29T09:58:34.403Z,6.45
2019-05-29T10:01:22.928Z,9.25
2019-05-29T10:03:58.979Z,7.12
2019-05-29T10:06:29.653Z,10.20
2019-05-29T10:09:01.928Z,6.55
2019-05-29T10:22:18.884Z,7.92
2019-05-29T10:25:01.965Z,13.32
2019-05-29T11:06:25.490Z,7.37
2019-05-29T11:08:57.624Z,8.33
2019-05-29T11:11:29.561Z,7.58
2019-05-29T11:14:04.194Z,7.40
2019-05-29T11:16:39.744Z,9.98
2019-05-29T11:22:41.350Z,6.47
2019-05-29T11:33:12.238Z,8.13
2019-05-29T11:58:37.754Z,8.93
2019-05-29T12:22:08.347Z,5.95
2019-05-29T12:24:42.567Z,3.98
2019-05-29T12:27:14.711Z,8.03
2019-05-29T12:29:46.846Z,7.60
2019-05-29T12:32:18.955Z,6.62
2019-05-29T12:34:54.114Z,5.12
2019-05-29T12:37:29.850Z,6.83
2019-05-29T12:40:13.204Z,7.62
2019-05-29T12:42:46.418Z,6.87
2019-05-29T12:45:18.420Z,8.03
2019-05-29T12:47:50.443Z,11.40
2019-05-29T12:50:29.170Z,12.78
2019-05-29T12:53:01.807Z,7.55
2019-05-29T12:55:34.234Z,7.12
2019-05-29T12:58:06.309Z,8.20
2019-05-29T13:00:38.425Z,4.67
2019-05-29T13:03:10.469Z,8.23
2019-05-29T13:05:42.578Z,9.88
2019-05-29T13:08:14.689Z,9.05
2019-05-29T13:10:56.196Z,6.03
2019-05-29T13:13:30.773Z,17.55
2019-05-29T13:16:05.042Z,7.35
2019-05-29T13:18:37.510Z,7.30
2019-05-29T13:21:09.592Z,5.45
2019-05-29T13:23:45.250Z,10.55
2019-05-29T13:26:15.826Z,8.88
2019-05-29T13:28:47.827Z,8.13
2019-05-29T13:34:20.708Z,11.03
2019-05-29T13:40:10.831Z,4.15
2019-05-29T13:43:18.949Z,5.75
2019-05-29T14:43:13.680Z,6.90
2019-05-29T14:45:44.121Z,9.93
2019-05-29T14:48:16.238Z,5.62
2019-05-29T14:50:48.389Z,8.85
2019-05-29T14:53:20.420Z,9.45
2019-05-29T14:55:52.502Z,3.37
2019-05-29T15:11:51.899Z,7.55
2019-05-29T15:14:23.956Z,6.58
2019-05-29T15:17:05.054Z,6.90
2019-05-29T15:19:37.384Z,8.65
2019-05-29T15:25:18.309Z,9.38
2019-05-29T15:27:42.562Z,6.25
2019-05-29T15:30:20.807Z,8.88
2019-05-29T15:32:48.945Z,8.58
2019-05-29T15:35:23.695Z,12.75
2019-05-29T15:37:56.122Z,10.43
2019-05-29T15:40:28.499Z,12.55
2019-05-29T15:43:06.803Z,5.90
2019-05-29T15:45:41.578Z,8.20
2019-05-29T15:48:18.143Z,11.10
2019-05-29T15:50:51.478Z,8.33
2019-05-29T15:53:23.741Z,7.85
2019-05-29T15:55:57.881Z,10.15
2019-05-29T15:58:35.896Z,9.28
2019-05-29T16:01:09.623Z,9.88
2019-05-29T16:03:41.918Z,6.92
2019-05-29T16:06:14.091Z,8.48
2019-05-29T16:08:46.159Z,6.47
2019-05-29T16:11:18.842Z,10.40
2019-05-29T16:13:51.060Z,8.93
2019-05-29T16:16:23.187Z,11.38
2019-05-29T16:18:55.359Z,9.35
2019-05-29T16:21:27.582Z,7.90
2019-05-29T16:23:59.705Z,10.28
2019-05-29T16:26:31.935Z,8.45
2019-05-29T16:29:04.046Z,8.38
2019-05-29T16:31:36.251Z,10.88
2019-05-29T16:34:08.684Z,8.38
2019-05-29T16:36:40.873Z,13.20
2019-05-29T16:39:13.529Z,11.83
2019-05-29T16:41:45.760Z,12.43
2019-05-29T16:44:18.277Z,18.87
2019-05-29T16:46:51.538Z,34.15
2019-05-29T16:49:23.707Z,13.55
2019-05-29T16:51:55.904Z,10.40
2019-05-29T16:54:32.808Z,11.15
2019-05-29T16:57:05.786Z,12.53
2019-05-29T17:06:53.530Z,9.73
2019-05-29T17:09:30.160Z,10.43
2019-05-29T17:12:23.059Z,7.12
2019-05-29T17:15:00.176Z,12.80
2019-05-29T17:17:44.289Z,6.12
2019-05-29T17:20:46.362Z,7.47
2019-05-29T17:26:18.920Z,9.50
2019-05-29T17:28:51.180Z,5.60
2019-05-29T17:38:37.822Z,43.08
2019-05-29T17:41:26.142Z,25.12
2019-05-29T17:44:05.224Z,11.63
2019-05-29T17:46:40.740Z,16.50
2019-05-29T17:49:13.326Z,17.87
2019-05-29T17:51:45.612Z,15.35
2019-05-29T17:54:17.968Z,14.83
2019-05-29T17:56:50.246Z,14.73
2019-05-29T17:59:22.545Z,19.00
2019-05-29T18:01:54.862Z,18.00
2019-05-29T18:04:27.067Z,15.08
2019-05-29T18:06:59.287Z,22.17
2019-05-29T18:09:31.858Z,18.35
2019-05-29T18:12:04.071Z,23.77
2019-05-29T18:14:36.323Z,24.05
2019-05-29T18:17:08.599Z,19.62
2019-05-29T18:19:40.809Z,22.32
2019-05-29T18:22:12.954Z,22.30
2019-05-29T18:24:45.183Z,18.73
2019-05-29T18:27:17.935Z,16.00
2019-05-29T18:29:51.686Z,21.65
2019-05-29T18:32:24.491Z,14.33
2019-05-29T19:28:34.918Z,32.80
2019-05-29T19:31:08.648Z,27.87
2019-05-29T19:33:43.685Z,26.77
2019-05-29T19:36:15.912Z,19.07
2019-05-29T19:38:48.090Z,20.12
2019-05-29T19:41:20.383Z,19.35
2019-05-29T19:43:52.609Z,21.45
2019-05-29T19:46:28.549Z,19.00
2019-05-29T19:49:00.963Z,12.30
2019-05-29T19:51:33.526Z,9.93
2019-05-29T19:54:06.728Z,10.65
2019-05-29T19:56:43.560Z,10.10
2019-05-29T19:59:15.748Z,5.58
2019-05-29T20:01:48.245Z,7.05
2019-05-29T20:04:23.400Z,6.47
2019-05-29T20:06:55.478Z,7.42
2019-05-29T20:09:27.663Z,7.12
2019-05-29T20:12:01.329Z,8.10
2019-05-29T20:14:35.792Z,7.92
2019-05-29T20:17:08.035Z,7.33
2019-05-29T20:19:41.024Z,6.00
2019-05-29T20:22:13.208Z,8.80
2019-05-29T20:24:45.264Z,5.83
2019-05-29T20:27:17.255Z,9.25
2019-05-29T20:29:49.391Z,9.53
2019-05-29T20:32:21.385Z,10.03
2019-05-29T20:34:53.514Z,8.15
2019-05-29T20:37:25.582Z,7.87
2019-05-29T20:39:58.873Z,10.82
2019-05-29T20:42:32.110Z,8.13
2019-05-29T20:45:06.744Z,7.45
2019-05-29T20:47:40.111Z,10.35
2019-05-29T20:50:12.444Z,6.30
2019-05-29T20:52:44.509Z,6.40
2019-05-29T20:55:16.509Z,10.70
2019-05-29T20:57:48.717Z,6.33
2019-05-29T21:00:20.844Z,5.90
2019-05-29T21:02:52.937Z,7.08
2019-05-29T21:05:25.006Z,4.72
2019-05-29T21:07:57.197Z,8.00
2019-05-29T21:10:29.177Z,5.65
2019-05-29T21:13:01.264Z,7.00
2019-05-29T21:15:33.598Z,7.20
2019-05-29T21:18:05.875Z,6.03
2019-05-29T21:20:38.326Z,9.88
2019-05-29T21:23:10.549Z,6.37
2019-05-29T21:25:42.904Z,6.67
2019-05-29T21:28:15.124Z,8.45
2019-05-29T21:30:47.129Z,6.20
2019-05-29T21:33:19.191Z,7.15
2019-05-29T21:35:51.197Z,6.12
2019-05-29T21:38:23.147Z,7.20
2019-05-29T21:40:56.087Z,5.70
2019-05-29T21:43:28.151Z,5.05
2019-05-29T21:46:00.129Z,8.48
2019-05-29T21:48:32.359Z,7.15
2019-05-29T21:51:04.458Z,5.33
2019-05-29T21:53:37.258Z,6.40
2019-05-29T21:56:09.399Z,10.60
2019-05-29T21:58:58.998Z,5.97
2019-05-29T22:01:15.526Z,7.17
2019-05-29T22:03:48.828Z,9.63
2019-05-29T22:06:22.232Z,6.08
2019-05-29T22:08:54.216Z,6.42
2019-05-29T22:11:26.339Z,8.28
2019-05-29T22:13:58.601Z,7.10
2019-05-29T22:16:30.772Z,8.48
2019-05-29T22:19:04.296Z,10.48
2019-05-29T22:21:36.550Z,9.78
2019-05-29T22:24:08.693Z,7.95
2019-05-29T22:26:40.745Z,7.62
2019-05-29T22:29:18.203Z,10.85
2019-05-29T22:31:46.593Z,12.80
2019-05-29T22:34:18.818Z,13.90
2019-05-29T22:36:51.426Z,12.20
2019-05-29T22:39:23.766Z,12.65
2019-05-29T22:41:57.592Z,10.90
2019-05-29T22:44:29.982Z,8.70
2019-05-29T22:47:02.130Z,13.50
2019-05-29T22:49:35.292Z,11.45
2019-05-29T22:52:07.579Z,10.58
2019-05-29T22:54:39.894Z,10.05
2019-05-29T22:57:12.167Z,8.78
2019-05-29T22:59:44.151Z,9.30
2019-05-29T23:02:16.239Z,11.97
2019-05-29T23:04:48.475Z,10.88
2019-05-29T23:07:20.699Z,11.08
2019-05-29T23:09:54.232Z,10.75
2019-05-29T23:12:26.652Z,14.43
2019-05-29T23:15:00.641Z,11.60
2019-05-29T23:17:34.068Z,15.43
2019-05-29T23:20:09.244Z,13.93
2019-05-29T23:22:41.640Z,13.30
2019-05-29T23:25:13.896Z,11.85
2019-05-29T23:27:46.082Z,12.73
2019-05-29T23:30:18.254Z,13.35
2019-05-29T23:32:50.801Z,17.25
2019-05-29T23:35:23.048Z,13.18
2019-05-29T23:37:55.251Z,13.70
2019-05-29T23:40:27.475Z,14.63
2019-05-29T23:42:59.647Z,14.90
2019-05-29T23:45:31.927Z,15.72
2019-05-29T23:48:04.081Z,15.05
2019-05-29T23:50:37.307Z,14.93
2019-05-29T23:53:09.888Z,12.95
2019-05-29T23:55:42.179Z,16.30
2019-05-29T23:58:14.324Z,15.68
